Bogorodskoe, Russia
Current Conditions -  °F | °C
As of 12:30 AM on Sunday 26 Oct 2014 (Local Time) from UHHH Reporting Station
Broken Clouds Broken Clouds  
Wind Chill: 28°   Ceiling: 10000
Heat Index: 34°   Visibility: 6mi
Dew Point: 32°   Wind: 7mph
Humidity: 93%   Direction: 50°NE
Pressure: 29.91"   Gusts: NA
Location:  52.38°N, 140.47°E
Report Text: UHHH 251430Z 05003MPS 9999 SCT026CB BKN100 01/00 Q1013 NOSIGRMK QFE753/1005 55090060
Loading
Personal Weather Stations






























Interactive Weather Map
Tropical Storm Tracking
New forecast layout! Learn more

10-Day Weather Forecast

Advertisements
Track Severe Weather on mobile